FDX58 LEMD-KONT
Flight info
| Callsign | FDX58 |
|---|---|
| Flight time | N/A |
| Altitude | 26000 |
| Route | RBO DCT ADORO DCT PINEK DCT RIPEL DCT MUDOS/M078F260 DCT 45N019W/M081F280 47N027W 48N035W 49N043W/N0481F280 DCT ELSIR/N0488F300 N412A MIILS Q907 SIKBO Q905 HOCKE Q824 FNT J36 DABJU/N0477F320 J36 BAE J16 MCW J148 ONL J114 SNY J100 BCE J60 BLD Q114 NATEE JCKIE2 |
| Aircraft | B77L/H-SDE1E2E3FGHIJ2J3J4J5M1RWXY/LB1D1 |
Departure
| Time | N/A |
|---|---|
| Airport | Adolfo Suárez Madrid–Barajas Airport (LEMD) |
Arrival
| Time | 2026-05-04 07:42 |
|---|---|
| Airport | Ontario International Airport (KONT) |
| Time | Latitude | Longitude | Altitude | Speed | Heading |
|---|---|---|---|---|---|
| 2026-05-04 07:26 | 34.62366 | -116.72763 | 16382 ft | 324 kts | 234° |
| 2026-05-04 07:27 | 34.61041 | -116.74982 | 16044 ft | 321 kts | 234° |
| 2026-05-04 07:27 | 34.59805 | -116.77219 | 15687 ft | 319 kts | 239° |
| 2026-05-04 07:27 | 34.58746 | -116.79577 | 15327 ft | 317 kts | 241° |
| 2026-05-04 07:27 | 34.57699 | -116.81921 | 14980 ft | 316 kts | 240° |
| 2026-05-04 07:28 | 34.56643 | -116.84265 | 14611 ft | 316 kts | 240° |
| 2026-05-04 07:28 | 34.55596 | -116.86585 | 14259 ft | 317 kts | 240° |
| 2026-05-04 07:28 | 34.54474 | -116.88927 | 13934 ft | 317 kts | 236° |
| 2026-05-04 07:28 | 34.53165 | -116.91035 | 13596 ft | 316 kts | 229° |
| 2026-05-04 07:29 | 34.51716 | -116.93041 | 13256 ft | 315 kts | 229° |
| 2026-05-04 07:29 | 34.50281 | -116.95038 | 12929 ft | 314 kts | 229° |
| 2026-05-04 07:29 | 34.48854 | -116.97035 | 12625 ft | 312 kts | 229° |
| 2026-05-04 07:29 | 34.47438 | -116.99020 | 12335 ft | 311 kts | 229° |
| 2026-05-04 07:30 | 34.46013 | -117.00982 | 12060 ft | 308 kts | 225° |
| 2026-05-04 07:30 | 34.44382 | -117.02668 | 11761 ft | 308 kts | 217° |
| 2026-05-04 07:30 | 34.42548 | -117.04007 | 11466 ft | 309 kts | 208° |
| 2026-05-04 07:30 | 34.40627 | -117.05183 | 11167 ft | 311 kts | 208° |
| 2026-05-04 07:31 | 34.38708 | -117.06362 | 10904 ft | 307 kts | 208° |
| 2026-05-04 07:31 | 34.36820 | -117.07532 | 10583 ft | 302 kts | 208° |
| 2026-05-04 07:33 | 34.26081 | -117.17259 | 8430 ft | 246 kts | 226° |
| 2026-05-04 07:33 | 34.24854 | -117.18733 | 8129 ft | 251 kts | 225° |
| 2026-05-04 07:33 | 34.23594 | -117.20231 | 7915 ft | 257 kts | 225° |
| 2026-05-04 07:33 | 34.22309 | -117.21747 | 7629 ft | 260 kts | 225° |
| 2026-05-04 07:34 | 34.21008 | -117.23273 | 7299 ft | 260 kts | 224° |
| 2026-05-04 07:34 | 34.19722 | -117.24776 | 7051 ft | 251 kts | 224° |
| 2026-05-04 07:34 | 34.18510 | -117.26194 | 6679 ft | 234 kts | 224° |
| 2026-05-04 07:34 | 34.17370 | -117.27524 | 6403 ft | 224 kts | 224° |
| 2026-05-04 07:35 | 34.16261 | -117.28815 | 6111 ft | 218 kts | 224° |
| 2026-05-04 07:35 | 34.15189 | -117.30064 | 5835 ft | 211 kts | 223° |
| 2026-05-04 07:35 | 34.14154 | -117.31267 | 5575 ft | 202 kts | 223° |
| 2026-05-04 07:35 | 34.13163 | -117.32419 | 5374 ft | 195 kts | 223° |
| 2026-05-04 07:36 | 34.12191 | -117.33548 | 5122 ft | 192 kts | 223° |
| 2026-05-04 07:36 | 34.11250 | -117.34642 | 4735 ft | 184 kts | 223° |
| 2026-05-04 07:38 | 34.05793 | -117.41553 | 3166 ft | 155 kts | 263° |
| 2026-05-04 07:38 | 34.05714 | -117.42849 | 3180 ft | 155 kts | 263° |
| 2026-05-04 07:38 | 34.05589 | -117.44138 | 3178 ft | 155 kts | 263° |
| 2026-05-04 07:38 | 34.05517 | -117.45455 | 3061 ft | 160 kts | 266° |
| 2026-05-04 07:39 | 34.05501 | -117.46787 | 2837 ft | 157 kts | 268° |
| 2026-05-04 07:39 | 34.05498 | -117.48088 | 2618 ft | 153 kts | 269° |
| 2026-05-04 07:39 | 34.05499 | -117.49358 | 2439 ft | 151 kts | 270° |
| 2026-05-04 07:39 | 34.05498 | -117.50623 | 2230 ft | 151 kts | 269° |
| 2026-05-04 07:40 | 34.05498 | -117.51898 | 2025 ft | 153 kts | 269° |
| 2026-05-04 07:40 | 34.05497 | -117.53179 | 1809 ft | 153 kts | 270° |
| 2026-05-04 07:40 | 34.05498 | -117.54451 | 1603 ft | 150 kts | 269° |
| 2026-05-04 07:40 | 34.05499 | -117.55710 | 1391 ft | 149 kts | 269° |
| 2026-05-04 07:41 | 34.05503 | -117.56956 | 1191 ft | 148 kts | 269° |
| 2026-05-04 07:41 | 34.05502 | -117.58165 | 998 ft | 138 kts | 268° |
| 2026-05-04 07:41 | 34.05496 | -117.59216 | 950 ft | 112 kts | 270° |
| 2026-05-04 07:41 | 34.05495 | -117.59991 | 949 ft | 65 kts | 269° |
| 2026-05-04 07:42 | 34.05503 | -117.60405 | 949 ft | 32 kts | 282° |
| 2026-05-04 07:42 | 34.05591 | -117.60588 | 950 ft | 2 kts | 314° |